sensor_id;sensor_type;location;lat;lon;timestamp;P1;durP1;ratioP1;P2;durP2;ratioP2
54959;SDS011;40860;51.710;8.736;2023-04-03T00:02:20;3.10;;;1.63;;
54959;SDS011;40860;51.710;8.736;2023-04-03T00:06:23;3.97;;;1.70;;
54959;SDS011;40860;51.710;8.736;2023-04-03T00:10:28;3.20;;;1.50;;
54959;SDS011;40860;51.710;8.736;2023-04-03T00:14:31;4.13;;;1.58;;
54959;SDS011;40860;51.710;8.736;2023-04-03T00:18:36;2.88;;;1.73;;
54959;SDS011;40860;51.710;8.736;2023-04-03T00:22:39;3.60;;;1.73;;
54959;SDS011;40860;51.710;8.736;2023-04-03T00:26:42;3.58;;;1.88;;
54959;SDS011;40860;51.710;8.736;2023-04-03T00:30:45;4.85;;;2.10;;
54959;SDS011;40860;51.710;8.736;2023-04-03T00:34:49;4.60;;;2.00;;
54959;SDS011;40860;51.710;8.736;2023-04-03T00:38:52;4.03;;;1.50;;
54959;SDS011;40860;51.710;8.736;2023-04-03T00:42:56;7.43;;;2.20;;
54959;SDS011;40860;51.710;8.736;2023-04-03T00:47:00;3.50;;;1.88;;
54959;SDS011;40860;51.710;8.736;2023-04-03T00:51:07;5.53;;;1.67;;
54959;SDS011;40860;51.710;8.736;2023-04-03T00:55:13;3.13;;;1.67;;
54959;SDS011;40860;51.710;8.736;2023-04-03T00:59:16;5.00;;;2.05;;
54959;SDS011;40860;51.710;8.736;2023-04-03T01:03:26;4.50;;;1.92;;
54959;SDS011;40860;51.710;8.736;2023-04-03T01:07:30;4.32;;;1.80;;
54959;SDS011;40860;51.710;8.736;2023-04-03T01:11:36;5.90;;;2.05;;
54959;SDS011;40860;51.710;8.736;2023-04-03T01:15:39;4.60;;;1.88;;
54959;SDS011;40860;51.710;8.736;2023-04-03T01:19:42;7.38;;;2.63;;
54959;SDS011;40860;51.710;8.736;2023-04-03T01:24:02;4.85;;;2.08;;
54959;SDS011;40860;51.710;8.736;2023-04-03T01:28:21;3.45;;;1.92;;
54959;SDS011;40860;51.710;8.736;2023-04-03T01:32:27;5.60;;;2.53;;
54959;SDS011;40860;51.710;8.736;2023-04-03T01:36:30;6.32;;;1.77;;
54959;SDS011;40860;51.710;8.736;2023-04-03T01:40:34;4.53;;;1.90;;
54959;SDS011;40860;51.710;8.736;2023-04-03T01:44:37;3.28;;;1.85;;
54959;SDS011;40860;51.710;8.736;2023-04-03T01:48:41;8.95;;;2.33;;
54959;SDS011;40860;51.710;8.736;2023-04-03T01:52:47;4.38;;;2.20;;
54959;SDS011;40860;51.710;8.736;2023-04-03T01:56:50;3.92;;;1.88;;
54959;SDS011;40860;51.710;8.736;2023-04-03T02:00:54;3.92;;;1.95;;
54959;SDS011;40860;51.710;8.736;2023-04-03T02:04:58;5.80;;;1.80;;
54959;SDS011;40860;51.710;8.736;2023-04-03T02:09:01;5.20;;;2.03;;
54959;SDS011;40860;51.710;8.736;2023-04-03T02:13:04;4.07;;;1.83;;
54959;SDS011;40860;51.710;8.736;2023-04-03T02:17:07;5.43;;;1.77;;
54959;SDS011;40860;51.710;8.736;2023-04-03T02:21:11;4.22;;;2.15;;
54959;SDS011;40860;51.710;8.736;2023-04-03T02:25:14;5.45;;;2.10;;
54959;SDS011;40860;51.710;8.736;2023-04-03T02:29:18;4.35;;;2.00;;
54959;SDS011;40860;51.710;8.736;2023-04-03T02:33:22;4.05;;;2.15;;
54959;SDS011;40860;51.710;8.736;2023-04-03T02:37:26;6.57;;;2.70;;
54959;SDS011;40860;51.710;8.736;2023-04-03T02:41:29;4.80;;;2.40;;
54959;SDS011;40860;51.710;8.736;2023-04-03T02:45:38;4.32;;;1.85;;
54959;SDS011;40860;51.710;8.736;2023-04-03T02:49:41;5.20;;;2.33;;
54959;SDS011;40860;51.710;8.736;2023-04-03T02:53:47;3.53;;;1.73;;
54959;SDS011;40860;51.710;8.736;2023-04-03T02:57:54;3.00;;;1.80;;
54959;SDS011;40860;51.710;8.736;2023-04-03T03:01:57;4.88;;;2.17;;
54959;SDS011;40860;51.710;8.736;2023-04-03T03:06:01;3.38;;;1.50;;
54959;SDS011;40860;51.710;8.736;2023-04-03T03:10:06;3.97;;;1.80;;
54959;SDS011;40860;51.710;8.736;2023-04-03T03:14:09;5.18;;;2.10;;
54959;SDS011;40860;51.710;8.736;2023-04-03T03:18:12;6.78;;;1.75;;
54959;SDS011;40860;51.710;8.736;2023-04-03T03:22:16;4.43;;;1.63;;
54959;SDS011;40860;51.710;8.736;2023-04-03T03:26:20;5.05;;;1.92;;
54959;SDS011;40860;51.710;8.736;2023-04-03T03:30:23;3.58;;;1.50;;
54959;SDS011;40860;51.710;8.736;2023-04-03T03:34:26;3.55;;;1.33;;
54959;SDS011;40860;51.710;8.736;2023-04-03T03:38:29;5.68;;;1.92;;
54959;SDS011;40860;51.710;8.736;2023-04-03T03:42:35;5.43;;;1.90;;
54959;SDS011;40860;51.710;8.736;2023-04-03T03:46:38;5.18;;;1.63;;
54959;SDS011;40860;51.710;8.736;2023-04-03T03:50:41;6.70;;;1.70;;
54959;SDS011;40860;51.710;8.736;2023-04-03T03:54:45;4.43;;;1.77;;
54959;SDS011;40860;51.710;8.736;2023-04-03T03:58:51;5.03;;;2.00;;
54959;SDS011;40860;51.710;8.736;2023-04-03T04:02:55;3.58;;;1.50;;
54959;SDS011;40860;51.710;8.736;2023-04-03T04:07:00;4.60;;;2.03;;
54959;SDS011;40860;51.710;8.736;2023-04-03T04:11:04;4.70;;;1.70;;
54959;SDS011;40860;51.710;8.736;2023-04-03T04:15:09;3.60;;;1.92;;
54959;SDS011;40860;51.710;8.736;2023-04-03T04:19:13;6.45;;;1.98;;
54959;SDS011;40860;51.710;8.736;2023-04-03T04:23:18;5.22;;;2.00;;
54959;SDS011;40860;51.710;8.736;2023-04-03T04:27:22;4.03;;;1.80;;
54959;SDS011;40860;51.710;8.736;2023-04-03T04:31:27;4.22;;;1.80;;
54959;SDS011;40860;51.710;8.736;2023-04-03T04:35:30;4.60;;;1.75;;
54959;SDS011;40860;51.710;8.736;2023-04-03T04:39:33;2.92;;;1.52;;
54959;SDS011;40860;51.710;8.736;2023-04-03T04:43:37;4.90;;;1.95;;
54959;SDS011;40860;51.710;8.736;2023-04-03T04:47:42;3.20;;;1.35;;
54959;SDS011;40860;51.710;8.736;2023-04-03T04:51:45;3.33;;;1.63;;
54959;SDS011;40860;51.710;8.736;2023-04-03T04:55:56;6.20;;;1.90;;
54959;SDS011;40860;51.710;8.736;2023-04-03T05:00:00;8.50;;;2.40;;
54959;SDS011;40860;51.710;8.736;2023-04-03T05:04:05;4.43;;;1.88;;
54959;SDS011;40860;51.710;8.736;2023-04-03T05:08:08;4.88;;;1.70;;
54959;SDS011;40860;51.710;8.736;2023-04-03T05:12:13;4.82;;;2.00;;
54959;SDS011;40860;51.710;8.736;2023-04-03T05:16:23;5.63;;;1.48;;
54959;SDS011;40860;51.710;8.736;2023-04-03T05:20:28;5.65;;;1.88;;
54959;SDS011;40860;51.710;8.736;2023-04-03T05:24:32;2.40;;;1.52;;
54959;SDS011;40860;51.710;8.736;2023-04-03T05:28:36;5.47;;;2.20;;
54959;SDS011;40860;51.710;8.736;2023-04-03T05:32:40;5.32;;;1.70;;
54959;SDS011;40860;51.710;8.736;2023-04-03T05:36:54;6.65;;;2.10;;
54959;SDS011;40860;51.710;8.736;2023-04-03T05:40:58;7.18;;;1.95;;
54959;SDS011;40860;51.710;8.736;2023-04-03T05:45:03;6.35;;;1.98;;
54959;SDS011;40860;51.710;8.736;2023-04-03T05:49:07;3.25;;;1.77;;
54959;SDS011;40860;51.710;8.736;2023-04-03T05:53:14;4.00;;;2.40;;
54959;SDS011;40860;51.710;8.736;2023-04-03T05:57:21;5.35;;;1.67;;
54959;SDS011;40860;51.710;8.736;2023-04-03T06:01:24;6.45;;;1.98;;
54959;SDS011;40860;51.710;8.736;2023-04-03T06:05:27;4.25;;;1.75;;
54959;SDS011;40860;51.710;8.736;2023-04-03T06:09:33;3.72;;;1.73;;
54959;SDS011;40860;51.710;8.736;2023-04-03T06:13:36;5.20;;;1.77;;
54959;SDS011;40860;51.710;8.736;2023-04-03T06:17:39;5.63;;;2.55;;
54959;SDS011;40860;51.710;8.736;2023-04-03T06:21:42;4.55;;;1.92;;
54959;SDS011;40860;51.710;8.736;2023-04-03T06:25:47;5.97;;;1.75;;
54959;SDS011;40860;51.710;8.736;2023-04-03T06:29:49;5.28;;;2.22;;
54959;SDS011;40860;51.710;8.736;2023-04-03T06:33:52;4.30;;;1.90;;
54959;SDS011;40860;51.710;8.736;2023-04-03T06:37:55;4.45;;;1.67;;
54959;SDS011;40860;51.710;8.736;2023-04-03T06:41:59;4.78;;;1.90;;
54959;SDS011;40860;51.710;8.736;2023-04-03T06:46:12;6.75;;;2.38;;
54959;SDS011;40860;51.710;8.736;2023-04-03T06:50:16;7.13;;;2.17;;
54959;SDS011;40860;51.710;8.736;2023-04-03T06:54:19;5.20;;;1.85;;
54959;SDS011;40860;51.710;8.736;2023-04-03T06:58:24;4.63;;;1.70;;
54959;SDS011;40860;51.710;8.736;2023-04-03T07:02:26;5.45;;;1.73;;
54959;SDS011;40860;51.710;8.736;2023-04-03T07:06:29;5.05;;;1.83;;
54959;SDS011;40860;51.710;8.736;2023-04-03T07:10:33;2.40;;;1.55;;
54959;SDS011;40860;51.710;8.736;2023-04-03T07:14:37;4.90;;;1.73;;
54959;SDS011;40860;51.710;8.736;2023-04-03T07:18:40;2.75;;;1.45;;
54959;SDS011;40860;51.710;8.736;2023-04-03T07:22:43;2.95;;;1.45;;
54959;SDS011;40860;51.710;8.736;2023-04-03T07:26:48;2.92;;;1.15;;
54959;SDS011;40860;51.710;8.736;2023-04-03T07:30:53;4.22;;;1.23;;
54959;SDS011;40860;51.710;8.736;2023-04-03T07:35:03;4.45;;;1.50;;
54959;SDS011;40860;51.710;8.736;2023-04-03T07:39:06;3.47;;;1.77;;
54959;SDS011;40860;51.710;8.736;2023-04-03T07:43:09;6.22;;;1.90;;
54959;SDS011;40860;51.710;8.736;2023-04-03T07:47:13;3.35;;;1.50;;
54959;SDS011;40860;51.710;8.736;2023-04-03T07:51:18;2.58;;;1.35;;
54959;SDS011;40860;51.710;8.736;2023-04-03T07:55:21;5.07;;;1.40;;
54959;SDS011;40860;51.710;8.736;2023-04-03T07:59:24;2.08;;;0.93;;
54959;SDS011;40860;51.710;8.736;2023-04-03T08:03:28;3.63;;;1.00;;
54959;SDS011;40860;51.710;8.736;2023-04-03T08:07:31;3.20;;;1.30;;
54959;SDS011;40860;51.710;8.736;2023-04-03T08:11:34;2.03;;;1.10;;
54959;SDS011;40860;51.710;8.736;2023-04-03T08:15:37;3.22;;;1.30;;
54959;SDS011;40860;51.710;8.736;2023-04-03T08:19:41;3.25;;;1.30;;
54959;SDS011;40860;51.710;8.736;2023-04-03T08:23:44;2.95;;;1.30;;
54959;SDS011;40860;51.710;8.736;2023-04-03T08:27:50;4.03;;;1.58;;
54959;SDS011;40860;51.710;8.736;2023-04-03T08:31:53;1.20;;;0.98;;
54959;SDS011;40860;51.710;8.736;2023-04-03T08:35:57;2.47;;;1.10;;
54959;SDS011;40860;51.710;8.736;2023-04-03T08:40:00;2.50;;;1.10;;
54959;SDS011;40860;51.710;8.736;2023-04-03T08:44:07;1.83;;;0.73;;
54959;SDS011;40860;51.710;8.736;2023-04-03T08:48:20;1.40;;;0.90;;
54959;SDS011;40860;51.710;8.736;2023-04-03T08:52:31;2.55;;;0.90;;
54959;SDS011;40860;51.710;8.736;2023-04-03T08:56:38;4.32;;;1.30;;
54959;SDS011;40860;51.710;8.736;2023-04-03T09:00:43;3.17;;;1.20;;
54959;SDS011;40860;51.710;8.736;2023-04-03T09:04:48;2.28;;;1.10;;
54959;SDS011;40860;51.710;8.736;2023-04-03T09:09:02;2.75;;;1.00;;
54959;SDS011;40860;51.710;8.736;2023-04-03T09:13:18;1.83;;;0.82;;
54959;SDS011;40860;51.710;8.736;2023-04-03T09:17:37;1.70;;;1.02;;
54959;SDS011;40860;51.710;8.736;2023-04-03T09:21:48;2.47;;;1.00;;
54959;SDS011;40860;51.710;8.736;2023-04-03T09:25:53;3.17;;;0.80;;
54959;SDS011;40860;51.710;8.736;2023-04-03T09:30:03;2.83;;;0.80;;
54959;SDS011;40860;51.710;8.736;2023-04-03T09:34:10;1.48;;;1.13;;
54959;SDS011;40860;51.710;8.736;2023-04-03T09:38:20;2.35;;;0.82;;
54959;SDS011;40860;51.710;8.736;2023-04-03T09:42:27;2.03;;;1.00;;
54959;SDS011;40860;51.710;8.736;2023-04-03T09:46:33;2.95;;;1.00;;
54959;SDS011;40860;51.710;8.736;2023-04-03T09:50:41;2.03;;;0.90;;
54959;SDS011;40860;51.710;8.736;2023-04-03T09:55:02;2.05;;;0.80;;
54959;SDS011;40860;51.710;8.736;2023-04-03T09:59:14;3.83;;;1.10;;
54959;SDS011;40860;51.710;8.736;2023-04-03T10:03:23;1.75;;;1.08;;
54959;SDS011;40860;51.710;8.736;2023-04-03T10:07:32;2.40;;;0.75;;
54959;SDS011;40860;51.710;8.736;2023-04-03T10:11:37;1.55;;;0.70;;
54959;SDS011;40860;51.710;8.736;2023-04-03T10:15:43;2.30;;;0.77;;
54959;SDS011;40860;51.710;8.736;2023-04-03T10:19:49;2.58;;;1.02;;
54959;SDS011;40860;51.710;8.736;2023-04-03T10:24:01;2.15;;;0.70;;
54959;SDS011;40860;51.710;8.736;2023-04-03T10:28:12;2.90;;;1.02;;
54959;SDS011;40860;51.710;8.736;2023-04-03T10:32:35;2.22;;;1.05;;
54959;SDS011;40860;51.710;8.736;2023-04-03T10:36:49;1.67;;;0.98;;
54959;SDS011;40860;51.710;8.736;2023-04-03T10:40:57;2.13;;;1.10;;
54959;SDS011;40860;51.710;8.736;2023-04-03T10:45:08;2.83;;;0.80;;
54959;SDS011;40860;51.710;8.736;2023-04-03T10:49:27;1.75;;;1.00;;
54959;SDS011;40860;51.710;8.736;2023-04-03T10:53:55;3.47;;;1.15;;
54959;SDS011;40860;51.710;8.736;2023-04-03T10:58:03;2.33;;;0.98;;
54959;SDS011;40860;51.710;8.736;2023-04-03T11:02:11;2.00;;;1.00;;
54959;SDS011;40860;51.710;8.736;2023-04-03T11:06:22;3.33;;;1.13;;
54959;SDS011;40860;51.710;8.736;2023-04-03T11:10:30;4.82;;;0.90;;
54959;SDS011;40860;51.710;8.736;2023-04-03T11:14:43;2.67;;;1.00;;
54959;SDS011;40860;51.710;8.736;2023-04-03T11:18:49;2.33;;;1.00;;
54959;SDS011;40860;51.710;8.736;2023-04-03T11:22:58;2.92;;;1.38;;
54959;SDS011;40860;51.710;8.736;2023-04-03T11:27:05;3.20;;;1.20;;
54959;SDS011;40860;51.710;8.736;2023-04-03T11:31:24;4.03;;;0.93;;
54959;SDS011;40860;51.710;8.736;2023-04-03T11:35:35;1.90;;;1.13;;
54959;SDS011;40860;51.710;8.736;2023-04-03T11:39:45;2.92;;;0.77;;
54959;SDS011;40860;51.710;8.736;2023-04-03T11:43:56;1.65;;;0.85;;
54959;SDS011;40860;51.710;8.736;2023-04-03T11:48:02;1.48;;;0.90;;
54959;SDS011;40860;51.710;8.736;2023-04-03T12:01:44;1.50;;;0.77;;
54959;SDS011;40860;51.710;8.736;2023-04-03T12:05:48;2.83;;;0.93;;
54959;SDS011;40860;51.710;8.736;2023-04-03T12:14:04;2.80;;;1.30;;
54959;SDS011;40860;51.710;8.736;2023-04-03T12:27:41;2.00;;;1.25;;
54959;SDS011;40860;51.710;8.736;2023-04-03T12:31:47;2.08;;;1.08;;
54959;SDS011;40860;51.710;8.736;2023-04-03T12:36:01;2.97;;;1.25;;
54959;SDS011;40860;51.710;8.736;2023-04-03T12:40:10;2.25;;;1.15;;
54959;SDS011;40860;51.710;8.736;2023-04-03T12:44:30;4.60;;;1.50;;
54959;SDS011;40860;51.710;8.736;2023-04-03T12:48:49;3.00;;;1.30;;
54959;SDS011;40860;51.710;8.736;2023-04-03T12:52:56;2.50;;;1.30;;
54959;SDS011;40860;51.710;8.736;2023-04-03T12:57:11;4.28;;;1.40;;
54959;SDS011;40860;51.710;8.736;2023-04-03T13:01:20;1.75;;;1.13;;
54959;SDS011;40860;51.710;8.736;2023-04-03T13:05:26;2.42;;;0.90;;
54959;SDS011;40860;51.710;8.736;2023-04-03T13:09:30;2.70;;;1.13;;
54959;SDS011;40860;51.710;8.736;2023-04-03T13:13:34;1.95;;;1.33;;
54959;SDS011;40860;51.710;8.736;2023-04-03T13:17:39;5.97;;;1.40;;
54959;SDS011;40860;51.710;8.736;2023-04-03T13:21:43;3.00;;;1.30;;
54959;SDS011;40860;51.710;8.736;2023-04-03T13:25:47;2.75;;;1.30;;
54959;SDS011;40860;51.710;8.736;2023-04-03T13:29:52;1.60;;;1.02;;
54959;SDS011;40860;51.710;8.736;2023-04-03T13:34:02;2.92;;;1.25;;
54959;SDS011;40860;51.710;8.736;2023-04-03T13:38:21;3.67;;;1.10;;
54959;SDS011;40860;51.710;8.736;2023-04-03T13:42:26;1.70;;;1.23;;
54959;SDS011;40860;51.710;8.736;2023-04-03T13:46:31;2.42;;;1.10;;
54959;SDS011;40860;51.710;8.736;2023-04-03T13:50:41;2.13;;;1.20;;
54959;SDS011;40860;51.710;8.736;2023-04-03T13:54:56;4.45;;;1.02;;
54959;SDS011;40860;51.710;8.736;2023-04-03T13:59:03;1.92;;;1.38;;
54959;SDS011;40860;51.710;8.736;2023-04-03T14:03:12;3.50;;;1.55;;
54959;SDS011;40860;51.710;8.736;2023-04-03T14:07:17;1.92;;;1.13;;
54959;SDS011;40860;51.710;8.736;2023-04-03T14:11:23;3.53;;;1.23;;
54959;SDS011;40860;51.710;8.736;2023-04-03T14:15:30;2.88;;;1.17;;
54959;SDS011;40860;51.710;8.736;2023-04-03T14:19:34;2.75;;;1.10;;
54959;SDS011;40860;51.710;8.736;2023-04-03T14:23:38;2.35;;;1.27;;
54959;SDS011;40860;51.710;8.736;2023-04-03T14:27:42;2.60;;;1.17;;
54959;SDS011;40860;51.710;8.736;2023-04-03T14:31:46;2.88;;;1.40;;
54959;SDS011;40860;51.710;8.736;2023-04-03T14:36:00;2.78;;;1.30;;
54959;SDS011;40860;51.710;8.736;2023-04-03T14:40:06;2.08;;;1.33;;
54959;SDS011;40860;51.710;8.736;2023-04-03T14:44:10;3.10;;;1.40;;
54959;SDS011;40860;51.710;8.736;2023-04-03T14:48:15;3.05;;;1.33;;
54959;SDS011;40860;51.710;8.736;2023-04-03T14:52:22;4.47;;;1.20;;
54959;SDS011;40860;51.710;8.736;2023-04-03T14:56:28;2.00;;;1.13;;
54959;SDS011;40860;51.710;8.736;2023-04-03T15:00:31;3.08;;;1.60;;
54959;SDS011;40860;51.710;8.736;2023-04-03T15:04:34;2.28;;;1.50;;
54959;SDS011;40860;51.710;8.736;2023-04-03T15:08:36;2.20;;;1.23;;
54959;SDS011;40860;51.710;8.736;2023-04-03T15:12:41;2.38;;;1.27;;
54959;SDS011;40860;51.710;8.736;2023-04-03T15:16:44;3.70;;;1.58;;
54959;SDS011;40860;51.710;8.736;2023-04-03T15:20:47;2.90;;;1.40;;
54959;SDS011;40860;51.710;8.736;2023-04-03T15:24:50;3.17;;;1.48;;
54959;SDS011;40860;51.710;8.736;2023-04-03T15:28:54;3.63;;;1.42;;
54959;SDS011;40860;51.710;8.736;2023-04-03T15:32:57;2.15;;;1.35;;
54959;SDS011;40860;51.710;8.736;2023-04-03T15:37:00;1.38;;;1.27;;
54959;SDS011;40860;51.710;8.736;2023-04-03T15:41:03;3.20;;;1.55;;
54959;SDS011;40860;51.710;8.736;2023-04-03T15:45:08;2.55;;;1.55;;
54959;SDS011;40860;51.710;8.736;2023-04-03T15:49:12;2.53;;;1.30;;
54959;SDS011;40860;51.710;8.736;2023-04-03T15:53:15;2.13;;;1.27;;
54959;SDS011;40860;51.710;8.736;2023-04-03T15:57:17;2.97;;;1.48;;
54959;SDS011;40860;51.710;8.736;2023-04-03T16:01:22;3.00;;;1.30;;
54959;SDS011;40860;51.710;8.736;2023-04-03T16:05:26;3.20;;;1.80;;
54959;SDS011;40860;51.710;8.736;2023-04-03T16:09:29;3.05;;;1.75;;
54959;SDS011;40860;51.710;8.736;2023-04-03T16:13:32;2.20;;;1.48;;
54959;SDS011;40860;51.710;8.736;2023-04-03T16:17:37;1.75;;;1.38;;
54959;SDS011;40860;51.710;8.736;2023-04-03T16:21:42;3.63;;;1.70;;
54959;SDS011;40860;51.710;8.736;2023-04-03T16:25:46;4.68;;;1.50;;
54959;SDS011;40860;51.710;8.736;2023-04-03T16:29:49;1.85;;;1.25;;
54959;SDS011;40860;51.710;8.736;2023-04-03T16:33:53;2.65;;;2.38;;
54959;SDS011;40860;51.710;8.736;2023-04-03T16:37:56;3.15;;;1.58;;
54959;SDS011;40860;51.710;8.736;2023-04-03T16:41:59;3.40;;;1.50;;
54959;SDS011;40860;51.710;8.736;2023-04-03T16:46:02;4.93;;;1.67;;
54959;SDS011;40860;51.710;8.736;2023-04-03T16:50:07;4.35;;;1.58;;
54959;SDS011;40860;51.710;8.736;2023-04-03T16:54:11;2.75;;;1.50;;
54959;SDS011;40860;51.710;8.736;2023-04-03T16:58:14;2.95;;;1.70;;
54959;SDS011;40860;51.710;8.736;2023-04-03T17:02:17;2.60;;;1.85;;
54959;SDS011;40860;51.710;8.736;2023-04-03T17:06:21;3.22;;;1.77;;
54959;SDS011;40860;51.710;8.736;2023-04-03T17:10:25;3.72;;;1.90;;
54959;SDS011;40860;51.710;8.736;2023-04-03T17:14:28;4.05;;;2.00;;
54959;SDS011;40860;51.710;8.736;2023-04-03T17:18:31;3.00;;;1.67;;
54959;SDS011;40860;51.710;8.736;2023-04-03T17:22:36;3.20;;;1.40;;
54959;SDS011;40860;51.710;8.736;2023-04-03T17:26:39;2.65;;;1.70;;
54959;SDS011;40860;51.710;8.736;2023-04-03T17:30:45;3.92;;;1.55;;
54959;SDS011;40860;51.710;8.736;2023-04-03T17:34:48;3.35;;;1.73;;
54959;SDS011;40860;51.710;8.736;2023-04-03T17:38:52;2.90;;;1.80;;
54959;SDS011;40860;51.710;8.736;2023-04-03T17:42:55;4.28;;;1.77;;
54959;SDS011;40860;51.710;8.736;2023-04-03T17:46:58;3.85;;;1.80;;
54959;SDS011;40860;51.710;8.736;2023-04-03T17:51:03;2.65;;;1.52;;
54959;SDS011;40860;51.710;8.736;2023-04-03T17:55:07;3.38;;;1.67;;
54959;SDS011;40860;51.710;8.736;2023-04-03T17:59:10;3.13;;;1.90;;
54959;SDS011;40860;51.710;8.736;2023-04-03T18:03:15;3.63;;;2.05;;
54959;SDS011;40860;51.710;8.736;2023-04-03T18:07:18;3.30;;;1.77;;
54959;SDS011;40860;51.710;8.736;2023-04-03T18:11:24;5.38;;;1.50;;
54959;SDS011;40860;51.710;8.736;2023-04-03T18:15:29;2.80;;;1.42;;
54959;SDS011;40860;51.710;8.736;2023-04-03T18:19:32;2.45;;;1.60;;
54959;SDS011;40860;51.710;8.736;2023-04-03T18:23:36;4.32;;;2.40;;
54959;SDS011;40860;51.710;8.736;2023-04-03T18:27:44;3.95;;;2.08;;
54959;SDS011;40860;51.710;8.736;2023-04-03T18:31:49;2.45;;;1.83;;
54959;SDS011;40860;51.710;8.736;2023-04-03T18:35:55;4.28;;;2.47;;
54959;SDS011;40860;51.710;8.736;2023-04-03T18:39:58;5.10;;;2.42;;
54959;SDS011;40860;51.710;8.736;2023-04-03T18:44:04;4.15;;;2.45;;
54959;SDS011;40860;51.710;8.736;2023-04-03T18:48:09;5.38;;;2.75;;
54959;SDS011;40860;51.710;8.736;2023-04-03T18:52:12;3.47;;;2.40;;
54959;SDS011;40860;51.710;8.736;2023-04-03T18:56:14;5.53;;;3.20;;
54959;SDS011;40860;51.710;8.736;2023-04-03T19:00:19;6.68;;;4.13;;
54959;SDS011;40860;51.710;8.736;2023-04-03T19:04:24;4.78;;;3.13;;
54959;SDS011;40860;51.710;8.736;2023-04-03T19:08:28;4.10;;;2.65;;
54959;SDS011;40860;51.710;8.736;2023-04-03T19:12:31;6.25;;;2.50;;
54959;SDS011;40860;51.710;8.736;2023-04-03T19:16:36;3.15;;;2.50;;
54959;SDS011;40860;51.710;8.736;2023-04-03T19:20:40;4.97;;;2.75;;
54959;SDS011;40860;51.710;8.736;2023-04-03T19:24:43;4.80;;;2.85;;
54959;SDS011;40860;51.710;8.736;2023-04-03T19:28:45;8.25;;;4.40;;
54959;SDS011;40860;51.710;8.736;2023-04-03T19:32:52;7.93;;;3.92;;
54959;SDS011;40860;51.710;8.736;2023-04-03T19:36:56;6.57;;;3.95;;
54959;SDS011;40860;51.710;8.736;2023-04-03T19:40:59;8.73;;;4.47;;
54959;SDS011;40860;51.710;8.736;2023-04-03T19:45:03;7.40;;;4.15;;
54959;SDS011;40860;51.710;8.736;2023-04-03T19:49:07;12.13;;;6.07;;
54959;SDS011;40860;51.710;8.736;2023-04-03T19:53:10;8.82;;;4.07;;
54959;SDS011;40860;51.710;8.736;2023-04-03T19:57:18;6.57;;;3.90;;
54959;SDS011;40860;51.710;8.736;2023-04-03T20:01:21;5.65;;;3.35;;
54959;SDS011;40860;51.710;8.736;2023-04-03T20:05:28;6.95;;;5.10;;
54959;SDS011;40860;51.710;8.736;2023-04-03T20:09:31;10.27;;;5.88;;
54959;SDS011;40860;51.710;8.736;2023-04-03T20:13:34;9.75;;;6.20;;
54959;SDS011;40860;51.710;8.736;2023-04-03T20:17:39;6.90;;;4.40;;
54959;SDS011;40860;51.710;8.736;2023-04-03T20:21:43;5.68;;;3.45;;
54959;SDS011;40860;51.710;8.736;2023-04-03T20:25:46;6.63;;;3.50;;
54959;SDS011;40860;51.710;8.736;2023-04-03T20:30:10;8.10;;;5.07;;
54959;SDS011;40860;51.710;8.736;2023-04-03T20:34:14;8.75;;;4.78;;
54959;SDS011;40860;51.710;8.736;2023-04-03T20:38:19;7.15;;;4.47;;
54959;SDS011;40860;51.710;8.736;2023-04-03T20:42:22;7.95;;;4.97;;
54959;SDS011;40860;51.710;8.736;2023-04-03T20:46:25;6.65;;;4.38;;
54959;SDS011;40860;51.710;8.736;2023-04-03T20:50:49;4.78;;;3.78;;
54959;SDS011;40860;51.710;8.736;2023-04-03T20:54:53;5.50;;;3.65;;
54959;SDS011;40860;51.710;8.736;2023-04-03T20:58:56;6.03;;;3.83;;
54959;SDS011;40860;51.710;8.736;2023-04-03T21:02:59;7.18;;;4.10;;
54959;SDS011;40860;51.710;8.736;2023-04-03T21:20:32;5.00;;;3.10;;
54959;SDS011;40860;51.710;8.736;2023-04-03T21:24:34;5.65;;;3.28;;
54959;SDS011;40860;51.710;8.736;2023-04-03T21:28:41;5.30;;;2.47;;
54959;SDS011;40860;51.710;8.736;2023-04-03T21:32:44;2.85;;;2.25;;
54959;SDS011;40860;51.710;8.736;2023-04-03T21:36:48;5.20;;;3.03;;
54959;SDS011;40860;51.710;8.736;2023-04-03T21:40:54;5.55;;;2.72;;
54959;SDS011;40860;51.710;8.736;2023-04-03T21:44:57;3.95;;;2.40;;
54959;SDS011;40860;51.710;8.736;2023-04-03T21:49:04;4.70;;;2.67;;
54959;SDS011;40860;51.710;8.736;2023-04-03T21:53:10;5.15;;;2.75;;
54959;SDS011;40860;51.710;8.736;2023-04-03T21:57:17;2.70;;;2.30;;
54959;SDS011;40860;51.710;8.736;2023-04-03T22:01:22;5.47;;;2.53;;
54959;SDS011;40860;51.710;8.736;2023-04-03T22:05:30;4.20;;;2.30;;
54959;SDS011;40860;51.710;8.736;2023-04-03T22:09:37;4.80;;;2.95;;
54959;SDS011;40860;51.710;8.736;2023-04-03T22:13:41;5.47;;;2.75;;
54959;SDS011;40860;51.710;8.736;2023-04-03T22:17:45;5.47;;;3.00;;
54959;SDS011;40860;51.710;8.736;2023-04-03T22:21:48;6.07;;;3.05;;
54959;SDS011;40860;51.710;8.736;2023-04-03T22:26:00;6.57;;;3.05;;
54959;SDS011;40860;51.710;8.736;2023-04-03T22:30:05;3.72;;;2.70;;
54959;SDS011;40860;51.710;8.736;2023-04-03T22:34:09;4.43;;;2.55;;
54959;SDS011;40860;51.710;8.736;2023-04-03T22:38:12;3.47;;;2.60;;
54959;SDS011;40860;51.710;8.736;2023-04-03T22:42:16;4.05;;;2.58;;
54959;SDS011;40860;51.710;8.736;2023-04-03T22:46:22;3.70;;;2.65;;
54959;SDS011;40860;51.710;8.736;2023-04-03T22:50:26;4.80;;;2.92;;
54959;SDS011;40860;51.710;8.736;2023-04-03T22:54:59;5.40;;;2.95;;
54959;SDS011;40860;51.710;8.736;2023-04-03T22:59:30;4.43;;;2.85;;
54959;SDS011;40860;51.710;8.736;2023-04-03T23:03:33;5.80;;;2.65;;
54959;SDS011;40860;51.710;8.736;2023-04-03T23:07:36;2.78;;;2.30;;
54959;SDS011;40860;51.710;8.736;2023-04-03T23:11:39;4.75;;;2.15;;
54959;SDS011;40860;51.710;8.736;2023-04-03T23:15:50;2.67;;;1.92;;
54959;SDS011;40860;51.710;8.736;2023-04-03T23:19:54;6.53;;;2.15;;
54959;SDS011;40860;51.710;8.736;2023-04-03T23:23:56;4.57;;;2.05;;
54959;SDS011;40860;51.710;8.736;2023-04-03T23:27:59;3.42;;;2.20;;
54959;SDS011;40860;51.710;8.736;2023-04-03T23:32:04;5.32;;;2.42;;
54959;SDS011;40860;51.710;8.736;2023-04-03T23:36:07;3.47;;;2.38;;
54959;SDS011;40860;51.710;8.736;2023-04-03T23:40:11;2.83;;;2.35;;
54959;SDS011;40860;51.710;8.736;2023-04-03T23:44:14;3.55;;;2.35;;
54959;SDS011;40860;51.710;8.736;2023-04-03T23:48:18;5.22;;;2.40;;
54959;SDS011;40860;51.710;8.736;2023-04-03T23:52:21;4.32;;;1.88;;
54959;SDS011;40860;51.710;8.736;2023-04-03T23:56:24;3.83;;;2.38;;
